createdAt,value
2022-09-25T00:00:05.939Z,11.70
2022-09-25T00:01:03.548Z,12.90
2022-09-25T00:02:04.896Z,11.40
2022-09-25T00:03:02.785Z,11.10
2022-09-25T00:04:02.651Z,12.90
2022-09-25T00:05:02.639Z,12.40
2022-09-25T00:06:09.167Z,11.90
2022-09-25T00:07:02.612Z,11.00
2022-09-25T00:08:02.587Z,9.60
2022-09-25T00:09:02.832Z,11.50
2022-09-25T00:10:02.573Z,14.60
2022-09-25T00:11:02.545Z,15.00
2022-09-25T00:12:02.555Z,12.50
2022-09-25T00:13:03.696Z,10.30
2022-09-25T00:14:05.549Z,15.20
2022-09-25T00:15:02.819Z,12.70
2022-09-25T00:16:02.866Z,13.80
2022-09-25T00:17:04.821Z,11.60
2022-09-25T00:18:02.479Z,11.20
2022-09-25T00:19:02.454Z,11.40
2022-09-25T00:20:02.472Z,12.90
2022-09-25T00:21:02.438Z,10.60
2022-09-25T00:22:02.421Z,13.00
2022-09-25T00:23:02.409Z,13.90
2022-09-25T00:24:02.390Z,10.20
2022-09-25T00:25:02.414Z,10.90
2022-09-25T00:26:02.374Z,10.90
2022-09-25T00:27:02.380Z,11.30
2022-09-25T00:28:02.357Z,12.70
2022-09-25T00:29:02.350Z,11.80
2022-09-25T00:30:02.361Z,13.70
2022-09-25T00:31:02.397Z,13.40
2022-09-25T00:32:02.305Z,11.80
2022-09-25T00:33:02.323Z,11.80
2022-09-25T00:34:02.406Z,11.90
2022-09-25T00:35:02.272Z,12.50
2022-09-25T00:36:02.290Z,13.30
2022-09-25T00:37:02.254Z,13.70
2022-09-25T00:38:02.234Z,8.60
2022-09-25T00:39:02.239Z,13.80
2022-09-25T00:40:02.731Z,13.10
2022-09-25T00:41:03.606Z,12.90
2022-09-25T00:42:02.209Z,11.90
2022-09-25T00:43:02.186Z,10.00
2022-09-25T00:44:02.281Z,11.00
2022-09-25T00:45:02.991Z,12.90
2022-09-25T00:46:02.231Z,10.70
2022-09-25T00:47:02.141Z,10.40
2022-09-25T00:48:02.143Z,12.80
2022-09-25T00:49:02.152Z,15.00
2022-09-25T00:50:02.200Z,11.60
2022-09-25T00:51:05.019Z,12.50
2022-09-25T00:52:02.084Z,10.20
2022-09-25T00:53:02.076Z,8.50
2022-09-25T00:54:02.171Z,10.60
2022-09-25T00:55:02.977Z,12.80
2022-09-25T00:56:02.055Z,11.80
2022-09-25T00:57:02.793Z,9.30
2022-09-25T00:58:02.545Z,10.50
2022-09-25T00:59:02.032Z,13.10
2022-09-25T01:00:01.987Z,8.90
2022-09-25T01:01:02.057Z,11.90
2022-09-25T01:03:20.208Z,11.10
2022-09-25T01:04:20.222Z,10.50
2022-09-25T01:05:21.130Z,12.00
2022-09-25T01:06:19.849Z,9.40
2022-09-25T01:07:19.857Z,14.20
2022-09-25T01:08:19.827Z,9.90
2022-09-25T01:09:19.825Z,12.40
2022-09-25T01:10:19.791Z,10.40
2022-09-25T01:11:19.792Z,14.10
2022-09-25T01:12:20.056Z,13.90
2022-09-25T01:13:19.779Z,10.30
2022-09-25T01:14:19.759Z,15.00
2022-09-25T01:15:19.760Z,11.80
2022-09-25T01:16:19.793Z,12.60
2022-09-25T01:17:19.736Z,10.10
2022-09-25T01:18:19.767Z,12.70
2022-09-25T01:19:19.702Z,11.90
2022-09-25T01:20:19.710Z,11.90
2022-09-25T01:21:19.673Z,13.20
2022-09-25T01:22:19.657Z,13.30
2022-09-25T01:23:19.671Z,12.30
2022-09-25T01:24:19.645Z,14.60
2022-09-25T01:25:19.622Z,13.00
2022-09-25T01:26:19.630Z,12.10
2022-09-25T01:27:19.603Z,11.70
2022-09-25T01:28:19.612Z,16.90
2022-09-25T01:29:19.585Z,10.30
2022-09-25T01:30:19.590Z,12.80
2022-09-25T01:31:19.639Z,11.60
2022-09-25T01:32:19.656Z,12.10
2022-09-25T01:33:19.556Z,13.20
2022-09-25T01:34:19.535Z,13.10
2022-09-25T01:35:19.521Z,12.10
2022-09-25T01:36:19.521Z,14.70
2022-09-25T01:37:19.503Z,10.30
2022-09-25T01:38:19.485Z,11.10
2022-09-25T01:39:19.487Z,13.60
2022-09-25T01:40:19.491Z,12.50
2022-09-25T01:41:19.441Z,12.10
2022-09-25T01:42:19.441Z,11.50
2022-09-25T01:43:19.427Z,7.90
2022-09-25T01:44:19.440Z,9.90
2022-09-25T01:45:19.394Z,9.40
2022-09-25T01:46:19.462Z,11.90
2022-09-25T01:47:19.379Z,12.90
2022-09-25T01:48:19.372Z,14.50
2022-09-25T01:49:19.398Z,13.20
2022-09-25T01:50:19.358Z,13.20
2022-09-25T01:51:19.347Z,10.70
2022-09-25T01:52:19.321Z,16.60
2022-09-25T01:53:19.311Z,13.30
2022-09-25T01:54:19.295Z,10.00
2022-09-25T01:55:19.314Z,12.60
2022-09-25T01:56:19.273Z,10.30
2022-09-25T01:57:19.323Z,10.30
2022-09-25T01:58:19.258Z,12.40
2022-09-25T01:59:19.270Z,12.60
2022-09-25T02:00:19.278Z,12.20
2022-09-25T02:01:19.268Z,10.30
2022-09-25T02:02:19.311Z,11.20
2022-09-25T02:03:19.252Z,12.50
2022-09-25T02:04:19.185Z,14.30
2022-09-25T02:05:19.207Z,12.10
2022-09-25T02:06:19.169Z,13.10
2022-09-25T02:07:19.152Z,9.00
2022-09-25T02:08:19.159Z,15.60
2022-09-25T02:09:19.148Z,12.90
2022-09-25T02:10:19.115Z,9.40
2022-09-25T02:11:19.123Z,12.10
2022-09-25T02:12:19.103Z,10.80
2022-09-25T02:13:19.102Z,12.00
2022-09-25T02:14:19.076Z,11.60
2022-09-25T02:15:19.063Z,13.90
2022-09-25T02:16:19.152Z,9.30
2022-09-25T02:17:19.036Z,13.80
2022-09-25T02:18:19.028Z,11.60
2022-09-25T02:19:19.018Z,9.70
2022-09-25T02:20:19.009Z,11.90
2022-09-25T02:21:19.023Z,13.40
2022-09-25T02:22:18.993Z,15.20
2022-09-25T02:23:18.998Z,14.00
2022-09-25T02:24:18.957Z,10.10
2022-09-25T02:25:18.945Z,16.50
2022-09-25T02:26:18.973Z,10.20
2022-09-25T02:27:18.925Z,13.20
2022-09-25T02:28:18.924Z,11.80
2022-09-25T02:29:18.900Z,15.70
2022-09-25T02:30:18.902Z,7.80
2022-09-25T02:31:18.949Z,12.80
2022-09-25T02:32:18.896Z,11.70
2022-09-25T02:33:18.860Z,12.10
2022-09-25T02:34:19.085Z,11.90
2022-09-25T02:35:18.831Z,11.00
2022-09-25T02:36:18.823Z,10.90
2022-09-25T02:37:18.844Z,11.20
2022-09-25T02:38:18.807Z,10.20
2022-09-25T02:39:18.802Z,11.50
2022-09-25T02:40:18.946Z,10.20
2022-09-25T02:41:18.774Z,10.40
2022-09-25T02:42:18.794Z,13.20
2022-09-25T02:43:18.742Z,11.20
2022-09-25T02:44:18.753Z,11.40
2022-09-25T02:45:18.805Z,14.20
2022-09-25T02:46:18.798Z,12.40
2022-09-25T02:47:18.705Z,10.30
2022-09-25T02:48:18.711Z,14.20
2022-09-25T02:49:18.682Z,15.60
2022-09-25T02:50:18.694Z,13.10
2022-09-25T02:51:18.657Z,10.60
2022-09-25T02:52:18.647Z,11.90
2022-09-25T02:53:18.654Z,9.80
2022-09-25T02:54:18.633Z,10.20
2022-09-25T02:55:18.609Z,11.90
2022-09-25T02:56:18.614Z,11.20
2022-09-25T02:57:18.578Z,13.70
2022-09-25T02:58:18.571Z,13.50
2022-09-25T02:59:18.574Z,11.90
2022-09-25T03:00:18.562Z,14.00
2022-09-25T03:01:18.620Z,13.10
2022-09-25T03:02:18.595Z,13.20
2022-09-25T03:03:18.511Z,9.30
2022-09-25T03:04:18.499Z,13.20
2022-09-25T03:05:18.488Z,11.30
2022-09-25T03:06:18.503Z,13.20
2022-09-25T03:07:18.467Z,13.40
2022-09-25T03:08:18.462Z,9.90
2022-09-25T03:09:18.456Z,8.90
2022-09-25T03:10:18.435Z,9.40
2022-09-25T03:11:18.469Z,15.20
2022-09-25T03:12:18.412Z,13.90
2022-09-25T03:13:18.413Z,11.20
2022-09-25T03:14:18.395Z,9.50
2022-09-25T03:15:18.386Z,13.10
2022-09-25T03:16:18.464Z,12.70
2022-09-25T03:17:18.362Z,15.10
2022-09-25T03:18:18.346Z,14.10
2022-09-25T03:19:18.337Z,14.00
2022-09-25T03:20:18.320Z,9.30
2022-09-25T03:21:18.336Z,11.30
2022-09-25T03:22:18.300Z,13.90
2022-09-25T03:23:18.301Z,9.20
2022-09-25T03:24:18.279Z,14.30
2022-09-25T03:25:18.274Z,13.50
2022-09-25T03:26:18.277Z,11.80
2022-09-25T03:27:18.267Z,12.40
2022-09-25T03:28:18.252Z,11.40
2022-09-25T03:29:18.227Z,11.00
2022-09-25T03:30:18.209Z,14.70
2022-09-25T03:31:18.255Z,12.80
2022-09-25T03:32:18.201Z,14.00
2022-09-25T03:33:18.179Z,12.30
2022-09-25T03:34:18.175Z,10.30
2022-09-25T03:35:18.159Z,16.60
2022-09-25T03:36:18.156Z,11.10
2022-09-25T03:37:18.126Z,14.60
2022-09-25T03:38:18.113Z,11.40
2022-09-25T03:39:18.233Z,12.10
2022-09-25T03:40:18.145Z,8.90
2022-09-25T03:41:18.112Z,13.40
2022-09-25T03:42:18.078Z,10.80
2022-09-25T03:43:18.092Z,12.10
2022-09-25T03:44:18.048Z,10.80
2022-09-25T03:45:18.053Z,9.40
2022-09-25T03:46:18.130Z,9.80
2022-09-25T03:47:18.014Z,15.50
2022-09-25T03:48:18.012Z,9.70
2022-09-25T03:49:18.012Z,10.00
2022-09-25T03:50:18.004Z,9.50
2022-09-25T03:51:18.030Z,10.40
2022-09-25T03:52:17.972Z,14.00
2022-09-25T03:53:17.953Z,13.40
2022-09-25T03:54:17.938Z,10.60
2022-09-25T03:55:17.940Z,14.50
2022-09-25T03:56:17.936Z,8.90
2022-09-25T03:57:17.899Z,11.10
2022-09-25T03:58:17.898Z,9.90
2022-09-25T03:59:17.891Z,11.30
2022-09-25T04:00:17.877Z,10.00
2022-09-25T04:01:17.948Z,13.60
2022-09-25T04:02:17.876Z,13.40
2022-09-25T04:03:17.835Z,12.20
2022-09-25T04:04:17.821Z,11.10
2022-09-25T04:05:17.826Z,14.10
2022-09-25T04:06:17.830Z,11.90
2022-09-25T04:07:17.826Z,10.70
2022-09-25T04:08:17.787Z,12.10
2022-09-25T04:09:17.779Z,10.50
2022-09-25T04:10:17.755Z,11.10
2022-09-25T04:11:17.771Z,12.10
2022-09-25T04:12:17.745Z,17.40
2022-09-25T04:13:17.730Z,10.80
2022-09-25T04:14:17.724Z,9.70
2022-09-25T04:15:17.695Z,8.60
2022-09-25T04:16:17.795Z,10.10
2022-09-25T04:17:17.679Z,11.10
2022-09-25T04:18:17.674Z,13.50
2022-09-25T04:19:17.654Z,10.90
2022-09-25T04:20:17.652Z,13.90
2022-09-25T04:21:17.650Z,9.10
2022-09-25T04:22:17.618Z,10.10
2022-09-25T04:23:17.614Z,8.30
2022-09-25T04:24:17.609Z,11.80
2022-09-25T04:25:22.060Z,10.80
2022-09-25T04:26:17.623Z,11.40
2022-09-25T04:27:17.565Z,11.60
2022-09-25T04:28:17.585Z,14.10
2022-09-25T04:29:17.537Z,12.40
2022-09-25T04:30:17.530Z,12.10
2022-09-25T04:31:17.623Z,13.60
2022-09-25T04:32:17.512Z,9.10
2022-09-25T04:33:17.493Z,9.40
2022-09-25T04:34:17.492Z,10.70
2022-09-25T04:35:17.482Z,12.20
2022-09-25T04:36:17.482Z,12.10
2022-09-25T04:37:17.449Z,16.20
2022-09-25T04:38:17.461Z,10.00
2022-09-25T04:39:17.424Z,9.70
2022-09-25T04:40:17.462Z,9.10
2022-09-25T04:41:17.422Z,12.90
2022-09-25T04:42:17.406Z,10.00
2022-09-25T04:43:17.381Z,9.10
2022-09-25T04:44:17.380Z,9.90
2022-09-25T04:45:17.360Z,10.10
2022-09-25T04:46:21.765Z,12.60
2022-09-25T04:47:17.352Z,10.20
2022-09-25T04:48:17.344Z,9.70
2022-09-25T04:49:17.315Z,11.10
2022-09-25T04:50:17.329Z,9.40
2022-09-25T04:51:17.310Z,13.10
2022-09-25T04:52:17.276Z,9.60
2022-09-25T04:53:17.270Z,11.60
2022-09-25T04:54:17.256Z,16.00
2022-09-25T04:55:17.248Z,9.60
2022-09-25T04:56:17.281Z,16.80
2022-09-25T04:57:27.587Z,13.90
2022-09-25T04:58:17.239Z,12.20
2022-09-25T04:59:17.213Z,11.80
2022-09-25T05:00:17.196Z,12.70
2022-09-25T05:01:17.342Z,12.20
2022-09-25T05:02:17.231Z,12.50
2022-09-25T05:03:17.260Z,10.10
2022-09-25T05:04:17.178Z,11.50
2022-09-25T05:05:17.160Z,10.90
2022-09-25T05:06:17.145Z,10.90
2022-09-25T05:07:17.113Z,10.20
2022-09-25T05:08:17.098Z,12.10
2022-09-25T05:09:17.133Z,12.50
2022-09-25T05:10:17.086Z,11.50
2022-09-25T05:11:17.104Z,13.90
2022-09-25T05:12:17.049Z,9.60
2022-09-25T05:13:17.053Z,10.30
2022-09-25T05:14:17.029Z,10.60
2022-09-25T05:15:17.046Z,12.30
2022-09-25T05:16:17.098Z,11.50
2022-09-25T05:17:17.007Z,13.20
2022-09-25T05:18:17.012Z,12.50
2022-09-25T05:19:16.970Z,11.90
2022-09-25T05:20:16.971Z,11.60
2022-09-25T05:21:16.994Z,14.60
2022-09-25T05:22:16.941Z,10.70
2022-09-25T05:23:16.929Z,12.90
2022-09-25T05:24:16.915Z,14.60
2022-09-25T05:25:16.924Z,10.60
2022-09-25T05:26:16.915Z,11.60
2022-09-25T05:27:16.878Z,13.80
2022-09-25T05:28:16.866Z,11.20
2022-09-25T05:29:16.872Z,11.60
2022-09-25T05:30:16.844Z,11.70
2022-09-25T05:31:16.952Z,11.70
2022-09-25T05:32:16.841Z,11.30
2022-09-25T05:33:16.814Z,14.80
2022-09-25T05:34:16.810Z,14.90
2022-09-25T05:35:16.804Z,12.10
2022-09-25T05:36:16.794Z,13.10
2022-09-25T05:37:16.768Z,9.10
2022-09-25T05:38:16.754Z,11.20
2022-09-25T05:39:16.742Z,10.30
2022-09-25T05:40:16.779Z,9.70
2022-09-25T05:41:16.757Z,12.20
2022-09-25T05:42:16.710Z,15.50
2022-09-25T05:43:16.714Z,10.60
2022-09-25T05:44:16.683Z,12.40
2022-09-25T05:45:16.677Z,12.90
2022-09-25T05:46:16.749Z,10.90
2022-09-25T05:47:16.654Z,11.10
2022-09-25T05:48:16.637Z,13.30
2022-09-25T05:49:16.637Z,11.80
2022-09-25T05:50:16.614Z,10.80
2022-09-25T05:51:16.625Z,12.70
2022-09-25T05:52:16.608Z,9.90
2022-09-25T05:53:16.612Z,12.40
2022-09-25T05:54:16.575Z,11.50
2022-09-25T05:55:16.578Z,12.40
2022-09-25T05:56:16.575Z,14.70
2022-09-25T05:57:16.546Z,13.90
2022-09-25T05:58:16.555Z,11.50
2022-09-25T05:59:16.517Z,9.30
2022-09-25T06:00:16.514Z,9.80
2022-09-25T06:01:16.529Z,9.80
2022-09-25T06:02:16.571Z,11.10
2022-09-25T06:03:16.581Z,11.50
2022-09-25T06:04:16.495Z,12.20
2022-09-25T06:05:16.456Z,11.20
2022-09-25T06:06:16.457Z,11.70
2022-09-25T06:07:16.427Z,12.80
2022-09-25T06:08:16.416Z,12.80
2022-09-25T06:09:16.409Z,9.90
2022-09-25T06:10:16.404Z,14.60
2022-09-25T06:11:16.411Z,11.30
2022-09-25T06:12:16.364Z,13.90
2022-09-25T06:13:16.368Z,11.50
2022-09-25T06:14:16.356Z,12.20
2022-09-25T06:15:16.356Z,10.60
2022-09-25T06:16:16.394Z,15.50
2022-09-25T06:17:16.318Z,12.80
2022-09-25T06:18:16.296Z,11.00
2022-09-25T06:19:16.306Z,9.70
2022-09-25T06:20:16.659Z,9.70
2022-09-25T06:21:16.294Z,13.20
2022-09-25T06:22:16.251Z,12.00
2022-09-25T06:23:16.254Z,14.70
2022-09-25T06:24:16.232Z,11.80
2022-09-25T06:25:16.327Z,10.00
2022-09-25T06:26:16.253Z,13.60
2022-09-25T06:27:16.277Z,12.70
2022-09-25T06:28:16.180Z,14.30
2022-09-25T06:29:16.186Z,12.20
2022-09-25T06:30:16.179Z,13.30
2022-09-25T06:31:16.208Z,14.30
2022-09-25T06:32:16.180Z,12.60
2022-09-25T06:33:16.209Z,15.60
2022-09-25T06:34:16.205Z,10.90
2022-09-25T06:35:16.131Z,11.80
2022-09-25T06:36:16.499Z,11.40
2022-09-25T06:37:16.102Z,13.70
2022-09-25T06:38:16.073Z,10.20
2022-09-25T06:39:16.072Z,13.30
2022-09-25T06:40:16.107Z,11.20
2022-09-25T06:41:16.041Z,12.40
2022-09-25T06:42:16.065Z,16.00
2022-09-25T06:43:16.013Z,16.00
2022-09-25T06:44:16.011Z,13.40
2022-09-25T06:45:15.994Z,11.10
2022-09-25T06:46:16.013Z,14.30
2022-09-25T06:47:19.104Z,12.30
2022-09-25T06:48:15.968Z,13.20
2022-09-25T06:49:15.953Z,13.80
2022-09-25T06:50:15.931Z,9.60
2022-09-25T06:51:15.923Z,11.40
2022-09-25T06:52:15.942Z,10.60
2022-09-25T06:53:15.913Z,8.90
2022-09-25T06:54:15.893Z,15.40
2022-09-25T06:55:15.882Z,12.40
2022-09-25T06:56:15.874Z,12.60
2022-09-25T06:57:15.893Z,12.30
2022-09-25T06:58:15.869Z,15.10
2022-09-25T06:59:15.865Z,12.30
2022-09-25T07:00:15.821Z,14.50
2022-09-25T07:01:15.882Z,14.20
2022-09-25T07:02:16.005Z,7.60
2022-09-25T07:03:15.865Z,15.50
2022-09-25T07:04:15.780Z,10.00
2022-09-25T07:05:15.766Z,15.30
2022-09-25T07:06:15.866Z,14.40
2022-09-25T07:07:15.841Z,11.20
2022-09-25T07:08:15.735Z,15.00
2022-09-25T07:09:15.716Z,14.20
2022-09-25T07:10:15.721Z,11.10
2022-09-25T07:11:15.713Z,9.10
2022-09-25T07:12:15.706Z,9.90
2022-09-25T07:13:15.692Z,8.10
2022-09-25T07:14:15.664Z,11.30
2022-09-25T07:15:15.670Z,12.20
2022-09-25T07:16:15.710Z,11.10
2022-09-25T07:17:15.656Z,10.70
2022-09-25T07:18:15.630Z,11.90
2022-09-25T07:19:15.626Z,9.10
2022-09-25T07:20:15.598Z,10.00
2022-09-25T07:21:15.581Z,13.70
2022-09-25T07:22:15.593Z,10.50
2022-09-25T07:23:15.560Z,8.90
2022-09-25T07:24:15.556Z,12.60
2022-09-25T07:25:15.546Z,12.00
2022-09-25T07:26:15.523Z,9.60
2022-09-25T07:27:15.563Z,9.40
2022-09-25T07:28:15.519Z,12.10
2022-09-25T07:29:15.503Z,11.80
2022-09-25T07:30:15.479Z,9.00
2022-09-25T07:31:15.687Z,10.00
2022-09-25T07:32:15.491Z,9.80
2022-09-25T07:33:15.445Z,8.10
2022-09-25T07:34:15.451Z,10.50
2022-09-25T07:35:15.429Z,7.70
2022-09-25T07:36:15.412Z,13.00
2022-09-25T07:37:15.422Z,12.80
2022-09-25T07:38:15.403Z,9.00
2022-09-25T07:39:18.526Z,7.90
2022-09-25T07:40:15.392Z,12.70
2022-09-25T07:41:15.353Z,10.40
2022-09-25T07:42:15.373Z,9.10
2022-09-25T07:43:15.342Z,11.60
2022-09-25T07:44:28.718Z,8.70
2022-09-25T07:45:15.323Z,10.20
2022-09-25T07:46:15.359Z,12.80
2022-09-25T07:47:15.304Z,9.80
2022-09-25T07:48:15.272Z,12.90
2022-09-25T07:49:15.263Z,8.50
2022-09-25T07:50:15.816Z,10.80
2022-09-25T07:51:15.237Z,7.80
2022-09-25T07:52:15.268Z,10.50
2022-09-25T07:53:15.218Z,9.10
2022-09-25T07:54:15.208Z,8.40
2022-09-25T07:55:15.194Z,8.80
2022-09-25T07:56:15.192Z,7.80
2022-09-25T07:57:15.195Z,9.20
2022-09-25T07:58:15.171Z,8.10
2022-09-25T07:59:15.147Z,8.60
2022-09-25T08:00:15.155Z,8.40
2022-09-25T08:01:15.153Z,10.20
2022-09-25T08:02:15.221Z,9.00
2022-09-25T08:03:15.136Z,7.40
2022-09-25T08:04:15.099Z,7.70
2022-09-25T08:05:15.113Z,9.60
2022-09-25T08:06:15.068Z,10.40
2022-09-25T08:07:15.076Z,11.00
2022-09-25T08:08:15.046Z,8.10
2022-09-25T08:09:15.032Z,9.80
2022-09-25T08:10:15.032Z,8.40
2022-09-25T08:11:15.022Z,9.50
2022-09-25T08:12:15.055Z,10.30
2022-09-25T08:13:14.989Z,8.40
2022-09-25T08:14:14.976Z,9.10
2022-09-25T08:15:14.976Z,11.00
2022-09-25T08:16:15.046Z,8.80
2022-09-25T08:17:14.979Z,8.10
2022-09-25T08:18:14.933Z,11.70
2022-09-25T08:19:14.929Z,8.10
2022-09-25T08:20:14.926Z,8.10
2022-09-25T08:21:14.906Z,8.20
2022-09-25T08:22:14.920Z,11.90
2022-09-25T08:23:14.898Z,9.30
2022-09-25T08:24:14.867Z,7.80
2022-09-25T08:25:14.868Z,9.00
2022-09-25T08:26:14.844Z,8.50
2022-09-25T08:27:14.859Z,7.70
2022-09-25T08:28:14.838Z,8.90
2022-09-25T08:29:14.811Z,7.10
2022-09-25T08:30:14.794Z,7.40
2022-09-25T08:31:15.036Z,7.30
2022-09-25T08:32:14.770Z,10.50
2022-09-25T08:33:15.887Z,8.00
2022-09-25T08:34:39.629Z,9.50
2022-09-25T08:35:14.757Z,8.00
2022-09-25T08:36:14.758Z,11.20
2022-09-25T08:37:14.731Z,6.90
2022-09-25T08:38:14.933Z,7.90
2022-09-25T08:39:14.714Z,11.10
2022-09-25T08:40:14.720Z,10.20
2022-09-25T08:41:14.738Z,9.80
2022-09-25T08:42:14.800Z,6.90
2022-09-25T08:43:14.716Z,8.40
2022-09-25T08:44:14.745Z,8.10
2022-09-25T08:45:21.701Z,11.20
2022-09-25T08:46:14.749Z,6.00
2022-09-25T08:47:19.038Z,6.80
2022-09-25T08:48:14.736Z,8.10
2022-09-25T08:49:14.681Z,13.00
2022-09-25T08:50:14.626Z,6.80
2022-09-25T08:51:14.608Z,10.00
2022-09-25T08:52:14.589Z,7.20
2022-09-25T08:53:14.574Z,7.40
2022-09-25T08:54:14.531Z,9.10
2022-09-25T08:55:14.586Z,10.70
2022-09-25T08:56:14.527Z,9.00
2022-09-25T08:57:14.545Z,8.80
2022-09-25T08:58:14.476Z,10.00
2022-09-25T08:59:14.479Z,11.50
2022-09-25T09:00:14.482Z,9.30
2022-09-25T09:01:14.498Z,10.70
2022-09-25T09:02:14.474Z,10.10
2022-09-25T09:03:14.427Z,7.80
2022-09-25T09:04:14.410Z,9.50
2022-09-25T09:05:14.429Z,10.50
2022-09-25T09:06:14.412Z,7.80
2022-09-25T09:07:29.428Z,10.80
2022-09-25T09:08:14.398Z,9.90
2022-09-25T09:09:14.365Z,7.50
2022-09-25T09:10:14.341Z,7.80
2022-09-25T09:11:14.361Z,7.20
2022-09-25T09:12:14.337Z,9.30
2022-09-25T09:13:14.350Z,7.10
2022-09-25T09:14:14.348Z,6.60
2022-09-25T09:15:14.297Z,9.00
2022-09-25T09:16:14.363Z,6.60
2022-09-25T09:17:14.266Z,8.00
2022-09-25T09:18:14.249Z,8.60
2022-09-25T09:19:14.270Z,9.20
2022-09-25T09:20:14.250Z,6.10
2022-09-25T09:21:14.222Z,6.70
2022-09-25T09:22:14.258Z,8.80
2022-09-25T09:23:15.547Z,8.10
2022-09-25T09:24:14.187Z,8.00
2022-09-25T09:25:14.167Z,9.20
2022-09-25T09:26:14.172Z,6.80
2022-09-25T09:27:14.196Z,8.50
2022-09-25T09:28:14.142Z,10.30
2022-09-25T09:29:14.131Z,7.20
2022-09-25T09:30:14.129Z,6.60
2022-09-25T09:31:14.391Z,9.60
2022-09-25T09:32:14.119Z,9.30
2022-09-25T09:33:14.086Z,7.00
2022-09-25T09:34:14.085Z,5.30
2022-09-25T09:35:14.083Z,8.80
2022-09-25T09:36:14.049Z,6.40
2022-09-25T09:37:14.058Z,7.70
2022-09-25T09:38:14.059Z,5.70
2022-09-25T09:39:14.034Z,10.00
2022-09-25T09:40:14.112Z,6.30
2022-09-25T09:41:14.051Z,7.10
2022-09-25T09:42:14.005Z,7.20
2022-09-25T09:43:13.990Z,6.70
2022-09-25T09:44:14.039Z,9.00
2022-09-25T09:45:13.954Z,7.30
2022-09-25T09:46:14.034Z,8.30
2022-09-25T09:47:13.988Z,7.30
2022-09-25T09:48:13.926Z,7.90
2022-09-25T09:49:13.922Z,7.30
2022-09-25T09:50:13.917Z,9.30
2022-09-25T09:51:13.905Z,7.80
2022-09-25T09:52:13.920Z,5.40
2022-09-25T09:53:13.882Z,8.90
2022-09-25T09:54:13.855Z,7.30
2022-09-25T09:55:13.841Z,5.30
2022-09-25T09:56:13.855Z,7.80
2022-09-25T09:57:13.844Z,10.00
2022-09-25T09:58:13.801Z,5.60
2022-09-25T09:59:13.817Z,4.20
2022-09-25T10:00:13.830Z,4.50
2022-09-25T10:01:29.414Z,6.90
2022-09-25T10:02:13.878Z,6.20
2022-09-25T10:03:13.884Z,6.50
2022-09-25T10:04:13.917Z,7.00
2022-09-25T10:05:13.728Z,7.60
2022-09-25T10:06:13.732Z,8.90
2022-09-25T10:07:13.743Z,11.20
2022-09-25T10:08:13.723Z,7.10
2022-09-25T10:09:13.781Z,8.50
2022-09-25T10:10:13.680Z,8.90
2022-09-25T10:11:13.809Z,5.80
2022-09-25T10:12:13.676Z,5.90
2022-09-25T10:13:13.654Z,7.60
2022-09-25T10:14:13.757Z,5.90
2022-09-25T10:15:13.614Z,7.40
2022-09-25T10:16:13.673Z,8.80
2022-09-25T10:17:13.659Z,6.90
2022-09-25T10:18:13.620Z,5.20
2022-09-25T10:19:13.817Z,5.80
2022-09-25T10:20:13.597Z,5.70
2022-09-25T10:21:13.548Z,7.10
2022-09-25T10:22:16.519Z,6.80
2022-09-25T10:23:15.194Z,5.90
2022-09-25T10:24:13.653Z,7.60
2022-09-25T10:25:13.498Z,7.80
2022-09-25T10:26:13.491Z,7.20
2022-09-25T10:27:13.527Z,6.10
2022-09-25T10:28:13.473Z,5.70
2022-09-25T10:29:13.463Z,6.60
2022-09-25T10:30:13.555Z,7.00
2022-09-25T10:31:13.584Z,5.00
2022-09-25T10:32:13.450Z,6.50
2022-09-25T10:33:13.412Z,7.30
2022-09-25T10:34:13.515Z,4.60
2022-09-25T10:35:13.394Z,5.20
2022-09-25T10:36:13.373Z,6.30
2022-09-25T10:37:13.379Z,6.00
2022-09-25T10:38:13.364Z,8.20
2022-09-25T10:39:39.638Z,6.50
2022-09-25T10:40:13.434Z,5.80
2022-09-25T10:41:13.360Z,5.10
2022-09-25T10:42:13.339Z,5.00
2022-09-25T10:43:13.291Z,7.40
2022-09-25T10:44:13.341Z,4.90
2022-09-25T10:45:13.284Z,7.30
2022-09-25T10:46:13.367Z,5.40
2022-09-25T10:47:13.366Z,5.80
2022-09-25T10:48:13.263Z,5.40
2022-09-25T10:49:13.435Z,5.70
2022-09-25T10:50:13.234Z,6.60
2022-09-25T10:51:13.210Z,6.60
2022-09-25T10:52:13.247Z,7.20
2022-09-25T10:53:13.210Z,8.30
2022-09-25T10:54:13.222Z,5.90
2022-09-25T10:55:13.214Z,6.10
2022-09-25T10:56:13.142Z,5.90
2022-09-25T10:57:13.156Z,5.20
2022-09-25T10:58:13.165Z,4.30
2022-09-25T10:59:13.119Z,9.20
2022-09-25T11:00:13.141Z,4.50
2022-09-25T11:01:13.178Z,5.80
2022-09-25T11:02:13.257Z,4.30
2022-09-25T11:03:17.177Z,4.90
2022-09-25T11:04:13.065Z,5.50
2022-09-25T11:05:13.054Z,5.20
2022-09-25T11:06:13.042Z,6.50
2022-09-25T11:07:13.047Z,4.50
2022-09-25T11:08:13.066Z,5.20
2022-09-25T11:09:13.138Z,6.30
2022-09-25T11:10:13.140Z,5.60
2022-09-25T11:11:13.005Z,6.20
2022-09-25T11:12:12.983Z,5.10
2022-09-25T11:13:12.996Z,7.40
2022-09-25T11:14:12.996Z,4.30
2022-09-25T11:15:12.935Z,6.10
2022-09-25T11:16:12.928Z,4.40
2022-09-25T11:17:12.934Z,5.80
2022-09-25T11:18:12.950Z,3.40
2022-09-25T11:19:12.974Z,3.70
2022-09-25T11:20:13.008Z,2.00
2022-09-25T11:21:12.873Z,3.90
2022-09-25T11:22:12.887Z,3.90
2022-09-25T11:23:12.867Z,3.40
2022-09-25T11:24:12.840Z,3.40
2022-09-25T11:25:12.833Z,4.30
2022-09-25T11:26:12.806Z,4.20
2022-09-25T11:27:13.093Z,3.90
2022-09-25T11:28:12.847Z,4.20
2022-09-25T11:29:12.976Z,3.70
2022-09-25T11:30:12.954Z,4.30
2022-09-25T11:31:12.782Z,3.60
2022-09-25T11:32:12.742Z,3.00
2022-09-25T11:33:12.768Z,5.10
2022-09-25T11:34:12.741Z,5.00
2022-09-25T11:35:12.714Z,7.10
2022-09-25T11:36:12.706Z,4.50
2022-09-25T11:37:12.690Z,5.60
2022-09-25T11:38:12.688Z,6.30
2022-09-25T11:39:12.697Z,3.40
2022-09-25T11:40:12.754Z,3.50
2022-09-25T11:41:12.689Z,5.30
2022-09-25T11:42:12.624Z,3.40
2022-09-25T11:43:12.630Z,6.20
2022-09-25T11:44:12.639Z,4.00
2022-09-25T11:45:12.653Z,4.70
2022-09-25T11:46:12.680Z,5.80
2022-09-25T11:47:12.578Z,4.40
2022-09-25T11:48:12.569Z,4.70
2022-09-25T11:49:12.787Z,5.00
2022-09-25T11:50:12.557Z,4.90
2022-09-25T11:51:12.550Z,4.80
2022-09-25T11:52:12.537Z,3.40
2022-09-25T11:53:12.512Z,4.90
2022-09-25T11:54:32.572Z,3.90
2022-09-25T11:55:12.491Z,5.40
2022-09-25T11:56:12.483Z,5.90
2022-09-25T11:57:12.504Z,6.40
2022-09-25T11:58:12.445Z,5.30
2022-09-25T11:59:12.427Z,5.90
2022-09-25T12:00:12.411Z,2.90
2022-09-25T12:01:12.538Z,3.50
2022-09-25T12:02:12.432Z,3.60
2022-09-25T12:03:12.416Z,5.20
2022-09-25T12:04:12.488Z,5.10
2022-09-25T12:05:12.361Z,3.10
2022-09-25T12:06:12.357Z,6.30
2022-09-25T12:07:12.344Z,3.40
2022-09-25T12:08:12.375Z,4.00
2022-09-25T12:09:12.355Z,5.40
2022-09-25T12:10:12.459Z,3.30
2022-09-25T12:11:12.342Z,4.40
2022-09-25T12:12:12.301Z,3.90
2022-09-25T12:13:12.281Z,3.50
2022-09-25T12:14:12.479Z,3.00
2022-09-25T12:15:12.281Z,3.60
2022-09-25T12:16:12.390Z,3.30
2022-09-25T12:17:12.262Z,3.50
2022-09-25T12:18:12.240Z,3.50
2022-09-25T12:19:12.206Z,3.30
2022-09-25T12:20:12.224Z,3.60
2022-09-25T12:21:13.227Z,4.50
2022-09-25T12:22:12.179Z,3.80
2022-09-25T12:23:12.184Z,6.80
2022-09-25T12:24:12.245Z,3.40
2022-09-25T12:25:12.142Z,5.20
2022-09-25T12:26:12.155Z,3.70
2022-09-25T12:27:12.178Z,2.80
2022-09-25T12:28:12.117Z,4.80
2022-09-25T12:29:12.117Z,4.10
2022-09-25T12:30:12.099Z,5.10
2022-09-25T12:31:12.192Z,3.30
2022-09-25T12:32:12.071Z,4.20
2022-09-25T12:33:12.079Z,5.70
2022-09-25T12:34:12.113Z,6.40
2022-09-25T12:35:12.027Z,4.50
2022-09-25T12:36:12.016Z,4.20
2022-09-25T12:37:12.016Z,4.30
2022-09-25T12:38:11.993Z,5.30
2022-09-25T12:39:12.296Z,5.00
2022-09-25T12:40:12.043Z,5.00
2022-09-25T12:41:11.987Z,3.90
2022-09-25T12:42:11.946Z,4.40
2022-09-25T12:43:11.934Z,3.70
2022-09-25T12:44:12.005Z,5.30
2022-09-25T12:45:11.926Z,3.50
2022-09-25T12:46:11.993Z,5.30
2022-09-25T12:47:11.906Z,3.80
2022-09-25T12:48:11.891Z,4.20
2022-09-25T12:49:11.882Z,3.40
2022-09-25T12:50:11.909Z,3.50
2022-09-25T12:51:11.857Z,3.60
2022-09-25T12:52:11.852Z,3.30
2022-09-25T12:53:11.855Z,5.30
2022-09-25T12:54:11.891Z,4.80
2022-09-25T12:55:11.829Z,5.40
2022-09-25T12:56:11.813Z,5.50
2022-09-25T12:57:11.776Z,3.90
2022-09-25T12:58:11.787Z,5.50
2022-09-25T12:59:11.787Z,4.00
2022-09-25T13:00:11.782Z,3.60
2022-09-25T13:01:11.791Z,4.00
2022-09-25T13:02:11.801Z,2.90
2022-09-25T13:03:11.734Z,2.80
2022-09-25T13:04:11.769Z,3.50
2022-09-25T13:05:11.715Z,3.50